Time;durP1;ratioP1;P1;durP2;ratioP2;P2;SDS_P1;SDS_P2;PMS_P1;PMS_P2;Temp;Humidity;BMP_temperature;BMP_pressure;BME280_temperature;BME280_humidity;BME280_pressure;Samples;Min_cycle;Max_cycle;Signal;HPM_P1;HPM_P2
2022/05/15 00:02:07;;;;;;;27.42;9.02;;;15.80;99.90;;;;;;5010489;28;20204;-55
2022/05/15 00:04:32;;;;;;;26.00;9.10;;;15.80;99.90;;;;;;5010535;28;20392;-55
2022/05/15 00:06:58;;;;;;;24.63;10.15;;;15.70;99.90;;;;;;5010526;28;20026;-55
2022/05/15 00:09:24;;;;;;;25.70;8.98;;;15.80;99.90;;;;;;5009034;28;20026;-56
2022/05/15 00:11:50;;;;;;;22.55;8.93;;;15.80;99.90;;;;;;5010657;28;20037;-56
2022/05/15 00:14:16;;;;;;;23.48;9.50;;;15.70;99.90;;;;;;5010493;28;20022;-55
2022/05/15 00:16:42;;;;;;;24.80;9.52;;;15.80;99.90;;;;;;5010424;28;20036;-55
2022/05/15 00:19:11;;;;;;;23.42;9.18;;;15.80;99.90;;;;;;5010231;28;20406;-55
2022/05/15 00:21:37;;;;;;;27.27;9.90;;;15.80;99.90;;;;;;5010747;28;20480;-55
2022/05/15 00:24:06;;;;;;;30.05;10.05;;;15.70;99.90;;;;;;5010366;28;20494;-55
2022/05/15 00:26:36;;;;;;;19.55;9.48;;;15.70;99.90;;;;;;5010438;28;20050;-55
2022/05/15 00:29:01;;;;;;;25.95;9.85;;;15.70;99.90;;;;;;5010494;28;20037;-55
2022/05/15 00:31:28;;;;;;;35.53;10.60;;;15.70;99.90;;;;;;5010333;28;20519;-55
2022/05/15 00:33:54;;;;;;;25.13;9.88;;;15.60;99.90;;;;;;5010363;28;20539;-55
2022/05/15 00:36:20;;;;;;;25.75;9.55;;;15.60;99.90;;;;;;5010299;28;20083;-55
2022/05/15 00:38:45;;;;;;;27.58;9.70;;;15.60;99.90;;;;;;5010680;28;20022;-55
2022/05/15 00:41:12;;;;;;;27.30;9.88;;;15.50;99.90;;;;;;5010757;28;20030;-57
2022/05/15 00:43:45;;;;;;;22.90;9.15;;;15.50;99.90;;;;;;5010211;28;20109;-55
2022/05/15 00:46:15;;;;;;;27.63;9.43;;;15.50;99.90;;;;;;5010864;28;20030;-55
2022/05/15 00:48:42;;;;;;;27.33;10.25;;;15.40;99.90;;;;;;5010342;28;20084;-55
2022/05/15 00:51:49;;;;;;;25.38;10.25;;;15.40;99.90;;;;;;5010137;28;20029;-56
2022/05/15 00:54:21;;;;;;;26.08;10.20;;;15.30;99.90;;;;;;5009994;28;20084;-56
2022/05/15 00:56:57;;;;;;;25.63;10.13;;;15.40;99.90;;;;;;5010119;28;20041;-55
2022/05/15 00:59:26;;;;;;;30.67;10.60;;;15.20;99.90;;;;;;5009996;28;20030;-55
2022/05/15 01:01:52;;;;;;;21.58;9.73;;;15.10;99.90;;;;;;5010098;28;20021;-55
2022/05/15 01:04:20;;;;;;;27.13;11.32;;;15.10;99.90;;;;;;5010165;28;20117;-55
2022/05/15 01:06:46;;;;;;;26.15;11.13;;;15.20;99.90;;;;;;5010393;28;20033;-55
2022/05/15 01:09:13;;;;;;;25.23;10.35;;;15.20;99.90;;;;;;5010131;28;20029;-55
2022/05/15 01:11:44;;;;;;;27.50;10.00;;;15.20;99.90;;;;;;5010064;28;20025;-55
2022/05/15 01:14:12;;;;;;;27.23;10.60;;;15.10;99.90;;;;;;5012636;28;20092;-55
2022/05/15 01:16:38;;;;;;;32.38;11.05;;;15.10;99.90;;;;;;5013858;28;20141;-55
2022/05/15 01:19:06;;;;;;;25.23;10.40;;;14.90;99.90;;;;;;5013547;28;20048;-55
2022/05/15 01:21:35;;;;;;;22.23;11.02;;;14.90;99.90;;;;;;5013664;28;20442;-55
2022/05/15 01:24:03;;;;;;;27.30;10.60;;;14.80;99.90;;;;;;5013169;28;20025;-56
2022/05/15 01:26:30;;;;;;;30.25;11.52;;;14.70;99.90;;;;;;5013117;28;20042;-55
2022/05/15 01:28:57;;;;;;;25.42;11.38;;;14.70;99.90;;;;;;5013220;28;20037;-55
2022/05/15 01:31:24;;;;;;;26.45;10.32;;;14.60;99.90;;;;;;5013125;28;20410;-55
2022/05/15 01:33:51;;;;;;;33.50;11.35;;;14.70;99.90;;;;;;5011747;28;20026;-54
2022/05/15 01:36:20;;;;;;;31.98;11.70;;;14.70;99.90;;;;;;5013566;28;20062;-56
2022/05/15 01:38:46;;;;;;;31.45;11.32;;;14.70;99.90;;;;;;5011522;28;20030;-55
2022/05/15 01:41:12;;;;;;;28.08;11.32;;;14.70;99.90;;;;;;5013355;28;20022;-55
2022/05/15 01:43:40;;;;;;;29.25;10.73;;;14.60;99.90;;;;;;5012909;28;20033;-55
2022/05/15 01:46:06;;;;;;;29.83;10.82;;;14.40;99.90;;;;;;5012783;28;20018;-55
2022/05/15 01:48:32;;;;;;;23.27;11.25;;;14.30;99.90;;;;;;5011280;28;20034;-55
2022/05/15 01:50:58;;;;;;;26.60;11.73;;;14.20;99.90;;;;;;5013148;28;20034;-55
2022/05/15 01:53:24;;;;;;;27.77;11.07;;;14.30;99.90;;;;;;5012907;28;20032;-55
2022/05/15 01:55:50;;;;;;;25.67;11.77;;;14.30;99.90;;;;;;5012709;28;20026;-55
2022/05/15 01:58:16;;;;;;;28.15;11.77;;;14.30;99.90;;;;;;5012425;28;20368;-55
2022/05/15 02:00:42;;;;;;;29.45;11.43;;;14.30;99.90;;;;;;5012493;28;20314;-55
2022/05/15 02:03:07;;;;;;;31.20;11.40;;;14.40;99.90;;;;;;5012731;28;20394;-55
2022/05/15 02:05:33;;;;;;;29.55;11.45;;;14.30;99.90;;;;;;5012486;28;20668;-55
2022/05/15 02:07:58;;;;;;;33.13;11.05;;;14.20;99.90;;;;;;5012432;28;20032;-55
2022/05/15 02:10:24;;;;;;;34.13;12.38;;;14.10;99.90;;;;;;5012169;28;20036;-55
2022/05/15 02:12:50;;;;;;;28.67;11.38;;;14.10;99.90;;;;;;5012318;28;20053;-55
2022/05/15 02:15:15;;;;;;;29.13;12.73;;;14.10;99.90;;;;;;5012596;28;20045;-55
2022/05/15 02:17:41;;;;;;;32.65;11.77;;;14.20;99.90;;;;;;5012187;28;20041;-55
2022/05/15 02:20:10;;;;;;;20.27;10.50;;;14.20;99.90;;;;;;5012599;28;20029;-56
2022/05/15 02:22:38;;;;;;;31.52;11.70;;;14.10;99.90;;;;;;5012314;28;20029;-56
2022/05/15 02:25:05;;;;;;;34.20;11.45;;;14.10;99.90;;;;;;5011352;28;20101;-55
2022/05/15 02:27:31;;;;;;;30.20;11.80;;;14.10;99.90;;;;;;5012213;28;20037;-55
2022/05/15 02:29:57;;;;;;;35.95;12.38;;;14.20;99.90;;;;;;5012041;28;20399;-55
2022/05/15 02:32:22;;;;;;;32.17;11.45;;;14.10;99.90;;;;;;5012009;28;20478;-55
2022/05/15 02:34:48;;;;;;;25.25;11.73;;;14.00;99.90;;;;;;5011500;28;20037;-55
2022/05/15 02:37:13;;;;;;;31.95;12.40;;;14.00;99.90;;;;;;5011789;28;20042;-55
2022/05/15 02:39:39;;;;;;;27.15;11.52;;;14.10;99.90;;;;;;5011815;28;20018;-56
2022/05/15 02:42:05;;;;;;;24.00;11.18;;;14.10;99.90;;;;;;5012369;28;20026;-56
2022/05/15 02:44:31;;;;;;;27.50;11.88;;;14.10;99.90;;;;;;5011621;28;20607;-56
2022/05/15 02:46:56;;;;;;;31.52;12.88;;;14.20;99.90;;;;;;5010092;28;20060;-55
2022/05/15 02:52:07;;;;;;;25.00;12.18;;;14.00;99.90;;;;;;5012394;28;20409;-55
2022/05/15 02:54:35;;;;;;;32.58;11.27;;;14.00;99.90;;;;;;5011242;28;20037;-55
2022/05/15 02:57:04;;;;;;;26.80;11.25;;;13.90;99.90;;;;;;5011075;28;20087;-55
2022/05/15 02:59:30;;;;;;;30.27;12.27;;;13.90;99.90;;;;;;5011268;28;20499;-55
2022/05/15 03:01:56;;;;;;;33.90;11.70;;;13.90;99.90;;;;;;5011605;28;20022;-55
2022/05/15 03:04:22;;;;;;;33.88;12.00;;;13.90;99.90;;;;;;5009967;28;20384;-55
2022/05/15 03:06:50;;;;;;;29.90;12.25;;;13.90;99.90;;;;;;5011206;28;20049;-55
2022/05/15 03:09:16;;;;;;;31.33;12.25;;;13.90;99.90;;;;;;5011390;28;20061;-56
2022/05/15 03:11:41;;;;;;;32.47;11.60;;;13.90;99.90;;;;;;5011461;28;20076;-56
2022/05/15 03:14:07;;;;;;;34.17;12.18;;;13.90;99.90;;;;;;5011447;28;20236;-55
2022/05/15 03:16:33;;;;;;;33.05;12.00;;;13.90;99.90;;;;;;5012116;28;20234;-55
2022/05/15 03:18:59;;;;;;;27.30;12.43;;;13.90;99.90;;;;;;5011126;28;20105;-55
2022/05/15 03:21:30;;;;;;;30.13;11.90;;;13.80;99.90;;;;;;5011387;28;20478;-55
2022/05/15 03:24:01;;;;;;;25.92;12.07;;;13.80;99.90;;;;;;5010940;28;20026;-55
2022/05/15 03:26:29;;;;;;;31.75;13.18;;;13.70;99.90;;;;;;5011092;28;20053;-55
2022/05/15 03:28:55;;;;;;;24.65;12.40;;;13.60;99.90;;;;;;5009874;28;20105;-55
2022/05/15 03:31:20;;;;;;;27.73;12.15;;;13.40;99.90;;;;;;5011236;28;20125;-55
2022/05/15 03:33:47;;;;;;;33.20;12.63;;;13.40;99.90;;;;;;5010949;28;20018;-55
2022/05/15 03:36:14;;;;;;;27.45;12.75;;;13.50;99.90;;;;;;5009971;28;20079;-55
2022/05/15 03:38:41;;;;;;;28.17;11.88;;;13.50;99.90;;;;;;5010800;28;20030;-55
2022/05/15 03:41:06;;;;;;;34.42;12.80;;;13.50;99.90;;;;;;5010965;28;20037;-55
2022/05/15 03:43:34;;;;;;;23.42;12.35;;;13.50;99.90;;;;;;5011053;28;20379;-55
2022/05/15 03:46:00;;;;;;;35.78;13.95;;;13.50;99.90;;;;;;5009471;28;20057;-55
2022/05/15 03:48:26;;;;;;;31.40;13.45;;;13.50;99.90;;;;;;5009646;28;20510;-55
2022/05/15 03:50:52;;;;;;;28.05;13.07;;;13.50;99.90;;;;;;5011398;28;20022;-54
2022/05/15 03:53:18;;;;;;;27.05;12.10;;;13.40;99.90;;;;;;5011297;28;20045;-55
2022/05/15 03:55:43;;;;;;;28.70;13.07;;;13.40;99.90;;;;;;5010802;28;20101;-55
2022/05/15 03:58:09;;;;;;;27.05;12.25;;;13.40;99.90;;;;;;5010670;28;20026;-55
2022/05/15 04:00:35;;;;;;;33.58;12.75;;;13.40;99.90;;;;;;5010390;28;20105;-55
2022/05/15 04:03:01;;;;;;;28.88;13.00;;;13.30;99.90;;;;;;5010920;28;20018;-54
2022/05/15 04:05:28;;;;;;;32.70;13.25;;;13.20;99.90;;;;;;5011021;28;20018;-54
2022/05/15 04:07:56;;;;;;;34.10;13.38;;;13.10;99.90;;;;;;5009266;28;20045;-55
2022/05/15 04:10:22;;;;;;;36.25;12.98;;;13.10;99.90;;;;;;5009352;28;20030;-54
2022/05/15 04:12:48;;;;;;;33.60;14.48;;;13.10;99.90;;;;;;5010624;28;20128;-55
2022/05/15 04:15:14;;;;;;;25.48;12.90;;;13.20;99.90;;;;;;5010259;28;20101;-54
2022/05/15 04:17:45;;;;;;;29.13;13.52;;;13.10;99.90;;;;;;5009294;28;20033;-54
2022/05/15 04:20:13;;;;;;;31.75;14.50;;;13.10;99.90;;;;;;5010381;28;20101;-55
2022/05/15 04:22:39;;;;;;;32.60;13.88;;;13.10;99.90;;;;;;5010632;28;20347;-54
2022/05/15 04:25:05;;;;;;;27.48;13.45;;;13.30;99.90;;;;;;5010116;28;20018;-55
2022/05/15 04:27:31;;;;;;;31.02;13.30;;;13.40;99.90;;;;;;5010493;28;20021;-55
2022/05/15 04:29:57;;;;;;;29.33;13.02;;;13.30;99.90;;;;;;5010329;28;20040;-55
2022/05/15 04:32:22;;;;;;;31.65;13.57;;;13.40;99.90;;;;;;5010528;28;20030;-54
2022/05/15 04:34:48;;;;;;;30.75;13.10;;;13.40;99.90;;;;;;5010172;28;20038;-55
2022/05/15 04:37:16;;;;;;;34.40;13.10;;;13.60;99.90;;;;;;5010295;28;20088;-55
2022/05/15 04:39:42;;;;;;;34.75;14.63;;;13.70;99.90;;;;;;5010309;28;20383;-55
2022/05/15 04:42:08;;;;;;;31.17;12.68;;;13.80;99.90;;;;;;5010564;28;20026;-54
2022/05/15 04:44:34;;;;;;;31.02;12.05;;;13.90;99.90;;;;;;5010070;28;20101;-55
2022/05/15 04:46:59;;;;;;;30.00;13.27;;;13.90;99.90;;;;;;5011135;28;20102;-55
2022/05/15 04:49:25;;;;;;;28.10;12.60;;;13.90;99.90;;;;;;5012459;28;20117;-55
2022/05/15 04:51:51;;;;;;;32.28;12.98;;;14.00;99.90;;;;;;5013949;28;20037;-55
2022/05/15 04:54:16;;;;;;;27.02;12.40;;;14.10;99.90;;;;;;5014202;28;20475;-55
2022/05/15 04:56:42;;;;;;;36.33;13.68;;;14.20;99.90;;;;;;5014008;28;20117;-55
2022/05/15 04:59:08;;;;;;;39.10;12.40;;;14.20;99.90;;;;;;5013810;28;20369;-54
2022/05/15 05:01:34;;;;;;;29.63;12.45;;;14.30;99.90;;;;;;5013842;28;20026;-55
2022/05/15 05:03:59;;;;;;;37.88;12.88;;;14.50;99.90;;;;;;5013630;28;20032;-55
2022/05/15 05:06:26;;;;;;;34.42;12.95;;;14.70;99.90;;;;;;5013421;28;20476;-55
2022/05/15 05:08:52;;;;;;;28.58;13.15;;;15.00;99.90;;;;;;5013668;28;20022;-55
2022/05/15 05:11:18;;;;;;;30.17;13.15;;;15.30;99.90;;;;;;5013748;28;20034;-54
2022/05/15 05:13:44;;;;;;;27.50;12.73;;;15.40;99.90;;;;;;5013529;28;20414;-55
2022/05/15 05:16:10;;;;;;;30.40;12.77;;;15.40;99.90;;;;;;5013377;28;20032;-55
2022/05/15 05:18:36;;;;;;;31.05;12.88;;;15.30;99.90;;;;;;5013511;28;20026;-55
2022/05/15 05:21:03;;;;;;;24.92;12.85;;;15.30;99.90;;;;;;5013643;28;20045;-55
2022/05/15 05:23:29;;;;;;;26.00;12.40;;;15.40;99.90;;;;;;5013547;28;20029;-55
2022/05/15 05:25:55;;;;;;;25.35;12.43;;;15.30;99.90;;;;;;5013445;28;20050;-55
2022/05/15 05:28:22;;;;;;;32.10;12.45;;;15.50;99.90;;;;;;5011791;28;20030;-55
2022/05/15 05:30:48;;;;;;;24.85;11.95;;;15.60;99.90;;;;;;5013558;28;20053;-55
2022/05/15 05:33:13;;;;;;;26.65;13.32;;;15.70;99.90;;;;;;5013285;28;20499;-55
2022/05/15 05:35:40;;;;;;;30.60;13.10;;;15.50;99.90;;;;;;5012957;28;20392;-55
2022/05/15 05:38:06;;;;;;;29.95;12.10;;;15.70;99.90;;;;;;5012332;28;20037;-55
2022/05/15 05:40:33;;;;;;;26.83;12.60;;;15.70;99.90;;;;;;5012764;28;20042;-55
2022/05/15 05:42:59;;;;;;;29.17;13.00;;;15.50;99.90;;;;;;5012632;28;20436;-55
2022/05/15 05:45:24;;;;;;;30.08;13.30;;;15.50;99.90;;;;;;5012671;28;20049;-55
2022/05/15 05:47:51;;;;;;;27.83;11.98;;;15.70;99.90;;;;;;5012220;28;20105;-55
2022/05/15 05:50:19;;;;;;;28.60;13.05;;;15.80;99.90;;;;;;5010930;28;20315;-55
2022/05/15 05:52:45;;;;;;;33.05;11.93;;;15.80;99.90;;;;;;5012407;28;20030;-55
2022/05/15 05:55:13;;;;;;;27.48;13.15;;;15.90;99.90;;;;;;5012333;28;20084;-55
2022/05/15 05:57:40;;;;;;;27.80;12.93;;;16.00;99.90;;;;;;5012080;28;20053;-55
2022/05/15 06:00:10;;;;;;;21.65;11.77;;;16.10;99.90;;;;;;5011642;28;20022;-55
2022/05/15 06:02:35;;;;;;;28.88;12.38;;;16.30;99.90;;;;;;5012243;28;20405;-55
2022/05/15 06:05:05;;;;;;;28.27;12.93;;;16.20;99.90;;;;;;5012182;28;20105;-55
2022/05/15 06:07:33;;;;;;;23.08;12.48;;;16.30;99.90;;;;;;5012175;28;20026;-55
2022/05/15 06:10:00;;;;;;;25.67;12.32;;;16.30;99.90;;;;;;5012027;28;20446;-55
2022/05/15 06:12:26;;;;;;;26.98;11.93;;;16.40;99.90;;;;;;5012192;28;20029;-55
2022/05/15 06:14:52;;;;;;;29.73;12.65;;;16.50;99.90;;;;;;5010713;28;20022;-55
2022/05/15 06:17:22;;;;;;;24.23;12.35;;;16.60;99.90;;;;;;5011673;28;20030;-55
2022/05/15 06:19:48;;;;;;;23.23;11.77;;;16.60;99.90;;;;;;5011928;28;20569;-55
2022/05/15 06:22:14;;;;;;;22.55;12.07;;;16.90;99.90;;;;;;5012345;28;20022;-55
2022/05/15 06:24:40;;;;;;;29.42;12.18;;;16.90;99.90;;;;;;5011877;28;20487;-55
2022/05/15 06:27:06;;;;;;;27.25;12.90;;;16.80;99.90;;;;;;5011522;28;20030;-55
2022/05/15 06:29:32;;;;;;;26.88;11.82;;;17.00;99.90;;;;;;5011845;28;20411;-55
2022/05/15 06:31:59;;;;;;;23.65;12.25;;;17.10;99.90;;;;;;5012099;28;20030;-55
2022/05/15 06:34:25;;;;;;;25.88;11.45;;;17.20;99.90;;;;;;5011927;28;20483;-55
2022/05/15 06:36:51;;;;;;;28.23;12.15;;;17.30;99.90;;;;;;5012047;28;20026;-56
2022/05/15 06:39:17;;;;;;;23.75;11.18;;;17.50;99.90;;;;;;5011684;28;20406;-56
2022/05/15 06:41:43;;;;;;;22.35;10.40;;;17.80;99.90;;;;;;5011625;28;20076;-55
2022/05/15 06:44:08;;;;;;;21.23;10.02;;;18.00;99.90;;;;;;5011488;28;20438;-56
2022/05/15 06:46:34;;;;;;;17.90;10.88;;;18.20;99.90;;;;;;5011963;28;20117;-56
2022/05/15 06:49:00;;;;;;;18.58;10.63;;;18.30;99.90;;;;;;5011606;28;20402;-55
2022/05/15 06:51:26;;;;;;;20.30;9.90;;;18.60;99.90;;;;;;5011648;28;20571;-55
2022/05/15 06:53:52;;;;;;;19.10;9.93;;;19.60;99.90;;;;;;5011538;28;20065;-55
2022/05/15 06:59:03;;;;;;;19.02;9.30;;;20.00;99.90;;;;;;5011447;28;20044;-55
2022/05/15 07:01:29;;;;;;;18.40;8.95;;;21.00;99.90;;;;;;5011642;28;20037;-55
2022/05/15 07:03:55;;;;;;;16.45;8.10;;;22.50;99.90;;;;;;5011743;28;20032;-55
2022/05/15 07:06:21;;;;;;;20.17;8.68;;;23.60;97.70;;;;;;5011774;28;20476;-56
2022/05/15 07:08:48;;;;;;;13.80;8.13;;;24.40;95.30;;;;;;5011778;28;20050;-57
2022/05/15 07:11:14;;;;;;;14.57;7.20;;;25.60;92.80;;;;;;5012025;28;20057;-57
2022/05/15 07:13:40;;;;;;;14.63;7.28;;;26.40;90.60;;;;;;5011856;28;20030;-57
2022/05/15 07:16:07;;;;;;;15.10;7.10;;;26.70;88.90;;;;;;5012264;28;20034;-57
2022/05/15 07:18:36;;;;;;;14.65;7.13;;;26.80;87.30;;;;;;5011805;28;20022;-57
2022/05/15 07:21:02;;;;;;;13.93;6.82;;;27.00;86.60;;;;;;5012172;28;20025;-57
2022/05/15 07:23:28;;;;;;;12.88;6.57;;;27.20;84.80;;;;;;5012078;28;20089;-57
2022/05/15 07:25:55;;;;;;;16.00;6.22;;;27.40;83.00;;;;;;5011771;28;20081;-57
2022/05/15 07:28:20;;;;;;;21.23;6.60;;;27.10;81.60;;;;;;5011574;28;20446;-57
2022/05/15 07:30:47;;;;;;;12.98;6.78;;;26.40;83.80;;;;;;5011788;28;20061;-57
2022/05/15 07:33:13;;;;;;;15.20;6.82;;;26.80;83.60;;;;;;5011244;28;20057;-57
2022/05/15 07:35:38;;;;;;;14.85;7.00;;;27.60;82.90;;;;;;5011119;28;20037;-57
2022/05/15 07:38:04;;;;;;;17.13;6.60;;;27.90;80.40;;;;;;5010148;28;20076;-57
2022/05/15 07:40:31;;;;;;;15.43;6.95;;;27.50;80.10;;;;;;5011425;28;20046;-57
2022/05/15 07:42:57;;;;;;;11.55;6.57;;;26.30;82.50;;;;;;5011745;28;20535;-57
2022/05/15 07:45:22;;;;;;;12.98;6.10;;;26.20;82.30;;;;;;5011363;28;20105;-58
2022/05/15 07:47:48;;;;;;;17.05;6.03;;;25.80;82.70;;;;;;5011507;28;20395;-57
2022/05/15 07:50:14;;;;;;;14.80;6.13;;;26.40;82.00;;;;;;5011494;28;20030;-57
2022/05/15 07:52:40;;;;;;;12.55;5.45;;;26.60;81.30;;;;;;5011816;28;20056;-56
2022/05/15 07:55:06;;;;;;;14.48;6.10;;;26.70;81.10;;;;;;5011262;28;20503;-57
2022/05/15 07:57:36;;;;;;;11.32;5.63;;;26.80;80.20;;;;;;5010814;28;20037;-57
2022/05/15 08:00:06;;;;;;;12.18;5.78;;;26.80;79.30;;;;;;5010939;28;20085;-56
2022/05/15 08:02:40;;;;;;;15.80;5.95;;;26.70;79.50;;;;;;5011304;28;20018;-56
2022/05/15 08:08:02;;;;;;;10.32;5.38;;;27.90;77.30;;;;;;5011688;28;20509;-58
2022/05/15 08:10:34;;;;;;;10.02;4.90;;;28.80;73.90;;;;;;5010864;28;20411;-57
2022/05/15 08:13:01;;;;;;;15.55;5.43;;;29.10;73.60;;;;;;5011507;28;20026;-57
2022/05/15 08:15:27;;;;;;;11.40;4.70;;;29.40;71.70;;;;;;5011280;28;20065;-57
2022/05/15 08:17:54;;;;;;;13.43;5.38;;;29.20;71.70;;;;;;5011108;28;20019;-58
2022/05/15 08:25:48;;;;;;;9.27;4.82;;;29.50;69.40;;;;;;5014948;28;20065;-58
2022/05/15 08:28:14;;;;;;;11.27;4.50;;;29.70;68.40;;;;;;5015317;28;20037;-58
2022/05/15 08:30:40;;;;;;;9.45;4.13;;;29.40;69.20;;;;;;5013010;28;20109;-58
2022/05/15 08:33:08;;;;;;;9.43;4.18;;;29.10;69.30;;;;;;5014836;28;20495;-57
2022/05/15 08:35:34;;;;;;;9.32;4.13;;;28.80;69.30;;;;;;5014724;28;20033;-57
2022/05/15 08:38:00;;;;;;;8.23;4.43;;;28.40;69.80;;;;;;5014701;28;20542;-57
2022/05/15 08:40:30;;;;;;;11.82;4.22;;;28.00;71.00;;;;;;5014784;28;20043;-58
2022/05/15 08:42:58;;;;;;;8.98;4.00;;;28.10;72.50;;;;;;5014954;28;20538;-57
2022/05/15 08:45:29;;;;;;;13.23;4.53;;;28.60;69.00;;;;;;5014343;28;20407;-57
2022/05/15 08:48:21;;;;;;;13.90;4.35;;;27.80;71.40;;;;;;5014620;28;20026;-58
2022/05/15 08:50:49;;;;;;;10.95;3.55;;;28.80;69.90;;;;;;5016041;28;20088;-58
2022/05/15 08:53:24;;;;;;;11.15;3.65;;;29.70;68.00;;;;;;5014579;28;20483;-57
2022/05/15 08:55:55;;;;;;;8.82;3.85;;;29.80;66.80;;;;;;5014321;28;20030;-57
2022/05/15 08:58:30;;;;;;;10.05;3.58;;;30.10;67.10;;;;;;5014358;28;20079;-57
2022/05/15 09:00:57;;;;;;;9.50;3.60;;;30.60;65.30;;;;;;5014139;28;20104;-58
2022/05/15 09:03:28;;;;;;;10.10;3.70;;;31.00;65.10;;;;;;5013971;28;20551;-58
2022/05/15 09:05:57;;;;;;;13.60;3.88;;;30.20;64.10;;;;;;5012802;28;20033;-58
2022/05/15 09:09:05;;;;;;;9.30;3.10;;;30.30;63.70;;;;;;5014060;28;20104;-58
2022/05/15 09:11:36;;;;;;;11.10;3.92;;;30.60;64.50;;;;;;5013719;28;20400;-57
2022/05/15 09:14:29;;;;;;;8.25;3.30;;;30.60;64.20;;;;;;5014322;28;20030;-57
2022/05/15 09:17:04;;;;;;;;;;;30.70;63.20;;;;;;5013604;28;20026;-57
2022/05/15 09:19:29;;;;;;;8.82;3.22;;;29.90;63.20;;;;;;5014165;28;19913;-58
2022/05/15 09:21:57;;;;;;;8.68;3.00;;;30.60;62.30;;;;;;5013790;28;20026;-58
2022/05/15 09:24:28;;;;;;;6.70;2.97;;;30.90;61.50;;;;;;5013924;28;20037;-58
2022/05/15 09:26:54;;;;;;;9.50;3.00;;;31.00;61.20;;;;;;5013886;28;20100;-58
2022/05/15 09:29:28;;;;;;;8.30;2.80;;;30.90;61.00;;;;;;5013628;28;20483;-58
2022/05/15 09:31:54;;;;;;;8.25;2.90;;;31.20;59.70;;;;;;5013743;28;20037;-58
2022/05/15 09:34:20;;;;;;;5.72;2.65;;;30.80;60.90;;;;;;5012244;28;20079;-58
2022/05/15 09:36:46;;;;;;;13.15;3.40;;;31.70;60.20;;;;;;5013695;28;20104;-58
2022/05/15 09:39:25;;;;;;;5.40;2.60;;;32.70;58.80;;;;;;5013499;28;20570;-59
2022/05/15 09:44:43;;;;;;;8.65;2.92;;;31.70;59.50;;;;;;5013306;28;20334;-58
2022/05/15 09:47:40;;;;;;;11.05;2.85;;;31.80;58.40;;;;;;5012215;28;20029;-58
2022/05/15 09:50:30;;;;;;;6.93;2.60;;;31.70;58.70;;;;;;5013341;28;20541;-57
2022/05/15 09:52:57;;;;;;;7.25;2.60;;;30.80;58.50;;;;;;5013115;28;20080;-57
2022/05/15 09:55:26;;;;;;;4.13;2.17;;;30.90;58.90;;;;;;5013252;28;20026;-58
2022/05/15 09:57:55;;;;;;;6.28;2.63;;;30.70;57.90;;;;;;5013091;28;20394;-57
2022/05/15 10:00:23;;;;;;;10.20;2.83;;;30.10;59.90;;;;;;5013516;28;20018;-57
2022/05/15 10:02:53;;;;;;;9.00;2.75;;;29.50;60.00;;;;;;5013019;28;20032;-57
2022/05/15 10:05:33;;;;;;;5.47;2.38;;;29.70;60.30;;;;;;5012715;28;20774;-58
2022/05/15 10:08:29;;;;;;;8.20;2.15;;;30.20;59.70;;;;;;5013295;28;20033;-58
2022/05/15 10:10:59;;;;;;;6.78;2.25;;;30.90;58.00;;;;;;5021087;28;20084;-59
2022/05/15 10:13:40;;;;;;;12.13;2.22;;;30.10;59.50;;;;;;5012491;28;20109;-57
2022/05/15 10:16:07;;;;;;;12.30;2.25;;;29.40;59.20;;;;;;5013173;28;20505;-58
2022/05/15 10:18:59;;;;;;;5.35;2.38;;;28.90;60.20;;;;;;5013202;28;20030;-59
2022/05/15 10:21:33;;;;;;;11.13;2.38;;;28.10;61.70;;;;;;5012995;28;20076;-58
2022/05/15 10:24:06;;;;;;;6.40;2.60;;;28.50;63.00;;;;;;5012713;28;20069;-57
2022/05/15 10:26:56;;;;;;;7.03;2.55;;;28.80;62.20;;;;;;5012520;28;20519;-57
2022/05/15 10:29:36;;;;;;;5.78;2.05;;;29.30;61.50;;;;;;5012804;28;20603;-57
2022/05/15 10:32:14;;;;;;;4.45;2.10;;;29.80;59.60;;;;;;5013005;28;20052;-58
2022/05/15 10:34:41;;;;;;;4.05;2.20;;;29.70;60.40;;;;;;5012486;28;20298;-58
2022/05/15 10:37:25;;;;;;;5.10;1.98;;;29.90;60.30;;;;;;5012434;28;20092;-58
2022/05/15 10:40:29;;;;;;;5.82;1.92;;;29.70;59.60;;;;;;5012437;28;20041;-58
2022/05/15 10:43:01;;;;;;;6.97;1.98;;;29.20;60.50;;;;;;5018543;28;20411;-58
2022/05/15 10:46:04;;;;;;;6.82;1.98;;;29.10;60.00;;;;;;5012530;28;20026;-58
2022/05/15 10:48:58;;;;;;;6.05;2.13;;;29.80;59.40;;;;;;5012333;28;20036;-57
2022/05/15 10:51:38;;;;;;;5.65;2.20;;;29.40;59.30;;;;;;5012735;28;20018;-58
2022/05/15 10:57:36;;;;;;;6.30;1.80;;;30.90;57.50;;;;;;5012211;28;20518;-57
2022/05/15 11:00:20;;;;;;;4.45;1.83;;;30.70;57.00;;;;;;5012261;28;20046;-58
2022/05/15 11:03:11;;;;;;;6.03;1.70;;;30.10;57.70;;;;;;5012291;28;20022;-58
2022/05/15 11:05:53;;;;;;;7.78;1.73;;;30.80;57.30;;;;;;5012064;28;20395;-57
2022/05/15 11:08:40;;;;;;;6.25;1.42;;;30.50;57.40;;;;;;5011801;28;20084;-57
2022/05/15 11:11:24;;;;;;;2.08;1.10;;;30.90;56.40;;;;;;5012777;28;20034;-58
2022/05/15 11:13:56;;;;;;;4.85;1.40;;;30.80;55.80;;;;;;5011990;28;20030;-58
2022/05/15 11:16:46;;;;;;;4.32;1.75;;;30.60;56.30;;;;;;5011902;28;20030;-58
2022/05/15 11:19:11;;;;;;;4.75;1.50;;;31.10;55.90;;;;;;5011875;28;20037;-58
2022/05/15 11:22:12;;;;;;;4.95;1.58;;;30.60;56.10;;;;;;5011697;28;20484;-58
2022/05/15 11:25:19;;;;;;;3.10;1.33;;;29.90;57.10;;;;;;5016594;28;20030;-57
2022/05/15 11:27:53;;;;;;;4.57;1.48;;;29.70;56.50;;;;;;5016121;28;20164;-57
2022/05/15 11:30:29;;;;;;;4.18;1.60;;;30.00;57.60;;;;;;5011517;28;20026;-57
2022/05/15 11:32:54;;;;;;;6.68;1.65;;;30.80;57.40;;;;;;5011634;28;20022;-57
2022/05/15 11:35:23;;;;;;;7.95;1.98;;;30.30;56.70;;;;;;5011837;28;20068;-57
2022/05/15 11:37:57;;;;;;;3.38;1.35;;;30.20;59.50;;;;;;5011327;28;20075;-58
2022/05/15 11:40:45;;;;;;;4.05;1.75;;;31.10;57.30;;;;;;5011225;28;20033;-58
2022/05/15 11:43:26;;;;;;;7.60;1.50;;;32.10;55.70;;;;;;5011259;28;20014;-58
2022/05/15 11:45:54;;;;;;;5.28;1.88;;;31.30;55.60;;;;;;5011497;28;20080;-58
2022/05/15 11:48:37;;;;;;;4.65;1.25;;;31.50;56.40;;;;;;5010981;28;20105;-57
2022/05/15 11:51:12;;;;;;;3.13;1.50;;;32.40;55.30;;;;;;5011270;28;20030;-57
2022/05/15 11:53:56;;;;;;;4.20;1.55;;;32.80;53.60;;;;;;5011332;28;20502;-57
2022/05/15 11:56:26;;;;;;;7.03;1.83;;;31.70;54.80;;;;;;5010488;28;20368;-57
2022/05/15 11:58:55;;;;;;;4.70;1.60;;;31.70;54.30;;;;;;5011003;28;20034;-57
2022/05/15 12:01:24;;;;;;;4.93;1.60;;;30.90;56.00;;;;;;5011283;28;20018;-58
2022/05/15 12:03:56;;;;;;;5.13;2.10;;;31.20;56.70;;;;;;5010907;28;20083;-58
2022/05/15 12:06:26;;;;;;;5.15;1.70;;;30.80;56.40;;;;;;5010810;28;20026;-58
2022/05/15 12:09:14;;;;;;;5.70;1.95;;;30.50;57.40;;;;;;5010915;28;20034;-58
2022/05/15 12:11:40;;;;;;;4.68;1.95;;;31.00;56.90;;;;;;5011107;28;20030;-58
2022/05/15 12:14:26;;;;;;;7.25;2.28;;;30.90;56.30;;;;;;5010937;28;20033;-58
2022/05/15 12:17:03;;;;;;;7.65;2.20;;;31.30;57.70;;;;;;5011030;28;20034;-59
2022/05/15 12:19:37;;;;;;;4.25;1.95;;;31.50;57.80;;;;;;5010536;28;20026;-59
2022/05/15 12:22:07;;;;;;;6.45;2.10;;;30.80;57.10;;;;;;5010996;28;20041;-58
2022/05/15 12:24:36;;;;;;;4.22;2.08;;;31.20;59.20;;;;;;5011132;28;20034;-58
2022/05/15 12:27:11;;;;;;;3.83;2.17;;;31.20;57.90;;;;;;5010998;28;20092;-58
2022/05/15 12:29:53;;;;;;;4.20;1.73;;;31.50;57.60;;;;;;5011120;28;20550;-57
2022/05/15 12:32:53;;;;;;;5.15;2.00;;;31.10;57.50;;;;;;5010960;28;20376;-57
2022/05/15 12:35:30;;;;;;;5.25;2.17;;;30.60;59.30;;;;;;5010649;28;20030;-57
2022/05/15 12:38:01;;;;;;;6.63;2.13;;;30.10;59.40;;;;;;5010864;28;20030;-57
2022/05/15 12:40:43;;;;;;;24.83;3.00;;;30.80;59.30;;;;;;5011250;28;20112;-57
2022/05/15 12:43:24;;;;;;;;;;;30.80;58.70;;;;;;5012128;28;20038;-57
2022/05/15 12:45:49;;;;;;;5.45;2.28;;;31.10;59.40;;;;;;5010786;28;20007;-57
2022/05/15 12:48:17;;;;;;;8.73;2.78;;;30.40;59.10;;;;;;5010790;28;20440;-57
2022/05/15 12:50:50;;;;;;;5.68;2.10;;;30.00;60.00;;;;;;5010329;28;20030;-57
2022/05/15 12:53:42;;;;;;;3.97;1.98;;;30.20;59.90;;;;;;5010856;28;20029;-57
2022/05/15 12:56:24;;;;;;;7.03;2.40;;;30.10;60.90;;;;;;5014231;28;20057;-57
2022/05/15 12:58:54;;;;;;;5.70;2.47;;;30.80;60.00;;;;;;5010677;28;20045;-57
2022/05/15 13:01:20;;;;;;;7.25;2.30;;;30.90;59.40;;;;;;5010812;28;20393;-58
2022/05/15 13:03:53;;;;;;;9.30;2.17;;;30.30;59.80;;;;;;5010961;28;20025;-58
2022/05/15 13:06:19;;;;;;;7.07;2.10;;;31.00;59.60;;;;;;5009499;28;20095;-58
2022/05/15 13:08:51;;;;;;;7.30;2.33;;;31.40;58.30;;;;;;5012227;28;20021;-57
2022/05/15 13:11:23;;;;;;;7.13;1.88;;;31.00;57.50;;;;;;5014620;28;20036;-58